Santanyi, Spain
Current Conditions -  °F | °C
As of 7:30 PM on Friday 31 Oct 2014 (Local Time) from LEPA Reporting Station
Few Clouds Few Clouds  
Wind Chill: 68°   Ceiling: Unl
Heat Index: 68°   Visibility: 6mi
Dew Point: 61°   Wind: 0mph
Humidity: 78%   Direction: NA
Pressure: 30.21"   Gusts: NA
Location:  39.35°N, 3.13°E
Report Text: LEPA 311830Z 00000KT 9999 FEW036 20/16 Q1023 NOSIG
Loading
Personal Weather Stations






























Interactive Weather Map
Tropical Storm Tracking
New forecast layout! Learn more

10-Day Weather Forecast

Advertisements
Track Severe Weather on mobile